Time;durP1;ratioP1;P1;durP2;ratioP2;P2;SDS_P1;SDS_P2;PMS_P1;PMS_P2;Temp;Humidity;BMP_temperature;BMP_pressure;BME280_temperature;BME280_humidity;BME280_pressure;Samples;Min_cycle;Max_cycle;Signal;HPM_P1;HPM_P2
2022/04/16 00:01:03;;;;;;;37.58;22.63;;;8.90;86.20;;;;;;4953761;28;20059;-72
2022/04/16 00:03:33;;;;;;;35.53;21.58;;;8.80;86.20;;;;;;4951181;29;20698;-72
2022/04/16 00:06:00;;;;;;;32.63;20.80;;;8.80;86.40;;;;;;4920401;29;20046;-73
2022/04/16 00:08:29;;;;;;;34.15;20.73;;;8.80;86.40;;;;;;4956125;29;20442;-72
2022/04/16 00:10:57;;;;;;;33.20;21.17;;;8.80;86.40;;;;;;4956626;29;20508;-71
2022/04/16 00:13:25;;;;;;;31.23;21.55;;;8.80;86.40;;;;;;4955420;29;20059;-72
2022/04/16 00:15:53;;;;;;;36.88;21.75;;;8.80;86.40;;;;;;4924020;29;20058;-71
2022/04/16 00:18:21;;;;;;;35.17;20.02;;;8.70;86.40;;;;;;4935027;29;20063;-72
2022/04/16 00:20:49;;;;;;;45.08;22.30;;;8.70;86.40;;;;;;4932464;29;20066;-71
2022/04/16 00:23:22;;;;;;;36.80;19.75;;;8.50;86.40;;;;;;4938523;29;20050;-72
2022/04/16 00:25:50;;;;;;;40.08;21.00;;;8.40;86.50;;;;;;4939164;29;20047;-72
2022/04/16 00:28:19;;;;;;;34.67;20.98;;;8.30;86.60;;;;;;4954854;29;20043;-71
2022/04/16 00:30:49;;;;;;;35.38;20.85;;;8.30;86.80;;;;;;4952551;28;20405;-72
2022/04/16 00:33:18;;;;;;;37.60;22.08;;;8.30;86.80;;;;;;4938498;29;20159;-72
2022/04/16 00:35:46;;;;;;;35.90;19.92;;;8.30;86.90;;;;;;4949296;28;20059;-71
2022/04/16 00:38:14;;;;;;;54.08;23.63;;;8.20;86.90;;;;;;4918859;29;20048;-71
2022/04/16 00:40:42;;;;;;;48.70;22.83;;;8.20;87.00;;;;;;4955585;28;20047;-72
2022/04/16 00:43:27;;;;;;;45.08;22.33;;;8.20;87.10;;;;;;4955528;29;20047;-72
2022/04/16 00:45:56;;;;;;;49.90;23.15;;;8.20;87.10;;;;;;4937430;29;20401;-72
2022/04/16 00:48:24;;;;;;;51.38;22.65;;;8.10;87.20;;;;;;4937915;29;20073;-72
2022/04/16 00:50:53;;;;;;;47.50;24.17;;;8.10;87.20;;;;;;4955424;29;20047;-72
2022/04/16 00:53:22;;;;;;;42.67;24.45;;;8.00;87.30;;;;;;4936996;28;20054;-72
2022/04/16 00:55:50;;;;;;;50.08;24.13;;;8.00;87.40;;;;;;4954765;28;20054;-71
2022/04/16 00:58:18;;;;;;;45.33;24.27;;;8.00;87.50;;;;;;4948046;28;20071;-72
2022/04/16 01:00:45;;;;;;;41.08;23.80;;;8.00;87.50;;;;;;4954769;28;20043;-71
2022/04/16 01:03:13;;;;;;;40.22;24.65;;;8.00;87.60;;;;;;4954177;28;20039;-71
2022/04/16 01:05:41;;;;;;;45.15;27.30;;;8.00;87.70;;;;;;4921819;29;20059;-72
2022/04/16 01:08:09;;;;;;;42.33;24.02;;;8.00;87.70;;;;;;4953982;28;20043;-70
2022/04/16 01:10:36;;;;;;;42.83;24.90;;;8.00;87.80;;;;;;4952281;29;20047;-71
2022/04/16 01:13:07;;;;;;;55.22;24.55;;;8.00;87.80;;;;;;4952885;28;20049;-71
2022/04/16 01:15:39;;;;;;;41.13;22.55;;;7.90;87.80;;;;;;4931048;29;20107;-71
2022/04/16 01:18:07;;;;;;;44.67;24.20;;;7.90;87.80;;;;;;4945266;28;20047;-71
2022/04/16 01:20:38;;;;;;;36.75;21.27;;;7.80;87.80;;;;;;4950079;28;20066;-71
2022/04/16 01:23:07;;;;;;;47.15;25.08;;;7.70;87.80;;;;;;4934778;29;20046;-71
2022/04/16 01:25:35;;;;;;;43.35;24.80;;;7.70;87.90;;;;;;4934981;29;20525;-72
2022/04/16 01:28:04;;;;;;;43.38;24.85;;;7.60;87.90;;;;;;4946789;28;20044;-73
2022/04/16 01:30:32;;;;;;;39.40;23.80;;;7.60;88.20;;;;;;4919506;29;20565;-73
2022/04/16 01:33:03;;;;;;;43.95;25.40;;;7.50;88.20;;;;;;4918003;29;20061;-74
2022/04/16 01:35:31;;;;;;;38.45;23.83;;;7.50;88.20;;;;;;4942936;29;20047;-73
2022/04/16 01:37:59;;;;;;;37.83;23.65;;;7.50;88.20;;;;;;4885385;29;20051;-72
2022/04/16 01:40:27;;;;;;;35.60;22.08;;;7.50;88.20;;;;;;4937443;29;20043;-72
2022/04/16 01:42:57;;;;;;;35.03;21.52;;;7.40;88.10;;;;;;4946727;29;20055;-72
2022/04/16 01:45:25;;;;;;;36.42;23.08;;;7.40;88.10;;;;;;4952104;28;20035;-72
2022/04/16 01:47:53;;;;;;;44.65;24.70;;;7.40;88.20;;;;;;4947385;28;20047;-72
2022/04/16 01:50:22;;;;;;;42.35;25.02;;;7.30;88.20;;;;;;4941500;28;20043;-74
2022/04/16 01:52:49;;;;;;;47.42;25.45;;;7.30;88.20;;;;;;4944841;29;20071;-72
2022/04/16 01:55:17;;;;;;;48.00;26.65;;;7.30;88.20;;;;;;4953097;29;20047;-70
2022/04/16 01:57:44;;;;;;;60.10;28.17;;;7.30;88.20;;;;;;4937712;29;20065;-72
2022/04/16 02:00:14;;;;;;;59.63;28.30;;;7.30;88.20;;;;;;4932776;29;20051;-72
2022/04/16 02:02:42;;;;;;;51.00;26.17;;;7.30;88.30;;;;;;4932172;29;20062;-71
2022/04/16 02:05:10;;;;;;;45.05;24.60;;;7.30;88.20;;;;;;4920458;29;20051;-72
2022/04/16 02:07:39;;;;;;;56.58;26.63;;;7.10;88.20;;;;;;4936353;29;20046;-72
2022/04/16 02:10:07;;;;;;;46.42;25.52;;;7.10;88.30;;;;;;4944774;28;20051;-72
2022/04/16 02:12:36;;;;;;;52.85;26.58;;;7.00;88.50;;;;;;4949113;28;20046;-72
2022/04/16 02:15:06;;;;;;;52.88;27.02;;;7.00;88.50;;;;;;4943375;29;20056;-72
2022/04/16 02:17:34;;;;;;;48.92;25.83;;;6.90;88.70;;;;;;4952684;28;20051;-72
2022/04/16 02:20:02;;;;;;;53.35;28.50;;;6.90;88.60;;;;;;4951946;29;20051;-71
2022/04/16 02:22:46;;;;;;;56.35;29.77;;;6.90;88.60;;;;;;4936301;29;20059;-72
2022/04/16 02:25:15;;;;;;;53.72;27.95;;;6.90;88.70;;;;;;4926657;29;20502;-72
2022/04/16 02:27:43;;;;;;;54.00;28.50;;;6.90;88.80;;;;;;4939282;29;20064;-72
2022/04/16 02:30:15;;;;;;;63.58;30.63;;;6.90;88.70;;;;;;4951841;29;20366;-72
2022/04/16 02:32:52;;;;;;;69.70;32.57;;;6.80;88.80;;;;;;4945546;29;20039;-72
2022/04/16 02:35:21;;;;;;;73.00;33.03;;;6.80;88.80;;;;;;4929144;29;20048;-72
2022/04/16 02:37:49;;;;;;;58.40;31.35;;;6.90;88.90;;;;;;4953057;29;20055;-71
2022/04/16 02:40:17;;;;;;;60.90;30.80;;;6.90;88.90;;;;;;4937513;29;20390;-71
2022/04/16 02:42:45;;;;;;;58.22;30.58;;;6.80;88.80;;;;;;4918130;29;20055;-71
2022/04/16 02:48:01;;;;;;;59.03;28.95;;;6.80;88.90;;;;;;4931945;29;20520;-72
2022/04/16 02:50:29;;;;;;;57.22;32.00;;;6.80;88.90;;;;;;4935856;29;20044;-71
2022/04/16 02:52:58;;;;;;;65.20;31.75;;;6.70;89.00;;;;;;4916301;29;20056;-71
2022/04/16 02:55:26;;;;;;;57.72;30.27;;;6.70;89.00;;;;;;4934432;29;20516;-71
2022/04/16 02:57:54;;;;;;;56.97;30.02;;;6.60;89.10;;;;;;4917403;29;20051;-71
2022/04/16 03:00:22;;;;;;;50.60;27.45;;;6.60;89.10;;;;;;4934345;29;20647;-71
2022/04/16 03:02:50;;;;;;;66.90;33.15;;;6.60;89.00;;;;;;4942710;29;20051;-71
2022/04/16 03:05:18;;;;;;;58.63;31.15;;;6.50;89.10;;;;;;4944642;28;20031;-72
2022/04/16 03:07:46;;;;;;;61.58;31.05;;;6.50;89.30;;;;;;4949722;28;20051;-71
2022/04/16 03:10:13;;;;;;;66.43;33.20;;;6.50;89.20;;;;;;4949099;28;20051;-72
2022/04/16 03:12:51;;;;;;;53.75;30.27;;;6.40;89.10;;;;;;4936345;29;20048;-71
2022/04/16 03:18:08;;;;;;;46.30;27.67;;;6.30;89.20;;;;;;4950217;28;20059;-71
2022/04/16 03:20:38;;;;;;;50.35;30.80;;;6.30;89.50;;;;;;4938804;28;20553;-71
2022/04/16 03:23:06;;;;;;;54.35;31.92;;;6.30;89.80;;;;;;4946257;28;20055;-71
2022/04/16 03:25:35;;;;;;;56.47;32.22;;;6.50;89.90;;;;;;4952985;28;20071;-71
2022/04/16 03:28:03;;;;;;;44.03;28.20;;;6.60;89.80;;;;;;4950694;28;20054;-71
2022/04/16 03:30:30;;;;;;;42.08;27.85;;;6.80;89.60;;;;;;4926490;29;20047;-71
2022/04/16 03:32:58;;;;;;;47.42;27.60;;;6.90;89.40;;;;;;4938272;29;20054;-71
2022/04/16 03:35:26;;;;;;;47.55;27.65;;;7.00;89.30;;;;;;4935428;29;20498;-71
2022/04/16 03:37:55;;;;;;;44.88;26.98;;;7.10;89.20;;;;;;4926034;29;20059;-72
2022/04/16 03:40:26;;;;;;;42.38;27.20;;;7.20;89.00;;;;;;4937338;29;20391;-71
2022/04/16 03:42:57;;;;;;;38.97;25.25;;;7.30;88.90;;;;;;4937587;29;20058;-71
2022/04/16 03:45:30;;;;;;;38.47;25.30;;;7.30;88.80;;;;;;4934665;29;20043;-71
2022/04/16 03:47:59;;;;;;;39.17;26.05;;;7.40;88.80;;;;;;4950986;29;20047;-71
2022/04/16 03:50:28;;;;;;;37.85;24.67;;;7.50;88.70;;;;;;4941150;29;20054;-71
2022/04/16 03:52:56;;;;;;;42.88;24.95;;;7.50;88.60;;;;;;4954360;29;20062;-71
2022/04/16 04:01:04;;;;;;;44.50;27.38;;;7.60;88.30;;;;;;4955564;28;20047;-71
2022/04/16 04:03:32;;;;;;;42.95;28.73;;;7.50;88.30;;;;;;4948147;28;20043;-72
2022/04/16 04:06:01;;;;;;;49.78;30.65;;;7.50;88.30;;;;;;4940440;29;20047;-71
2022/04/16 04:08:30;;;;;;;48.92;29.75;;;7.40;88.50;;;;;;4944451;29;20047;-72
2022/04/16 04:10:57;;;;;;;46.03;27.95;;;7.30;88.50;;;;;;4940144;29;20508;-71
2022/04/16 04:13:25;;;;;;;56.92;31.73;;;7.30;88.50;;;;;;4949829;29;20043;-71
2022/04/16 04:15:52;;;;;;;57.92;32.20;;;7.20;88.60;;;;;;4926505;29;20055;-71
2022/04/16 04:18:22;;;;;;;54.40;31.10;;;7.20;88.70;;;;;;4952838;29;20043;-71
2022/04/16 04:20:50;;;;;;;51.72;28.92;;;7.10;88.70;;;;;;4939897;29;20483;-71
2022/04/16 04:23:22;;;;;;;50.28;29.42;;;7.00;88.80;;;;;;4937416;29;20676;-71
2022/04/16 04:25:50;;;;;;;57.90;31.50;;;6.90;88.80;;;;;;4940493;29;20520;-71
2022/04/16 04:28:17;;;;;;;61.30;33.40;;;6.80;88.80;;;;;;4954644;28;20067;-71
2022/04/16 04:30:45;;;;;;;54.25;31.45;;;6.70;89.00;;;;;;4922466;29;20405;-71
2022/04/16 04:33:13;;;;;;;57.42;30.98;;;6.70;89.10;;;;;;4934173;29;20063;-71
2022/04/16 04:35:40;;;;;;;63.15;32.35;;;6.60;89.10;;;;;;4924611;28;20046;-71
2022/04/16 04:38:08;;;;;;;56.75;32.13;;;6.60;89.30;;;;;;4936043;29;20058;-70
2022/04/16 04:40:35;;;;;;;64.43;35.20;;;6.50;89.30;;;;;;4937484;29;20085;-71
2022/04/16 04:43:03;;;;;;;71.93;37.05;;;6.50;89.50;;;;;;4955182;28;20047;-71
2022/04/16 04:45:30;;;;;;;54.22;31.35;;;6.50;89.40;;;;;;4936236;29;20073;-71
2022/04/16 04:47:58;;;;;;;63.55;33.38;;;6.50;89.40;;;;;;4936932;29;20541;-71
2022/04/16 04:50:26;;;;;;;62.50;35.33;;;6.50;89.40;;;;;;4952490;29;20509;-71
2022/04/16 04:52:53;;;;;;;84.88;40.38;;;6.50;89.40;;;;;;4952552;28;20052;-71
2022/04/16 04:55:21;;;;;;;74.38;37.83;;;6.50;89.50;;;;;;4936461;29;20047;-71
2022/04/16 04:57:54;;;;;;;73.65;39.40;;;6.60;89.60;;;;;;4955197;29;20073;-70
2022/04/16 05:00:21;;;;;;;69.43;37.35;;;6.60;89.60;;;;;;4923312;29;20063;-71
2022/04/16 05:02:49;;;;;;;76.82;38.35;;;6.70;89.60;;;;;;4934645;29;20487;-71
2022/04/16 05:05:17;;;;;;;72.65;37.65;;;6.80;89.50;;;;;;4937648;29;20044;-71
2022/04/16 05:07:45;;;;;;;67.82;35.13;;;6.90;89.40;;;;;;4939813;29;20051;-72
2022/04/16 05:10:12;;;;;;;62.75;35.38;;;6.90;89.40;;;;;;4936136;29;20047;-71
2022/04/16 05:12:40;;;;;;;63.38;35.33;;;7.00;89.40;;;;;;4935855;29;20622;-71
2022/04/16 05:15:08;;;;;;;66.63;35.40;;;7.10;89.30;;;;;;4947143;28;20051;-71
2022/04/16 05:17:37;;;;;;;70.80;35.40;;;7.20;89.30;;;;;;4952772;29;20469;-71
2022/04/16 05:20:07;;;;;;;62.42;34.10;;;7.30;89.30;;;;;;4954689;28;20043;-72
2022/04/16 05:22:35;;;;;;;65.70;36.28;;;7.30;89.20;;;;;;4950512;28;20051;-72
2022/04/16 05:25:03;;;;;;;64.20;34.67;;;7.40;89.20;;;;;;4949468;29;20040;-72
2022/04/16 05:27:30;;;;;;;56.00;32.63;;;7.50;89.20;;;;;;4951786;29;20083;-72
2022/04/16 05:30:06;;;;;;;56.03;32.50;;;7.60;89.10;;;;;;4949668;28;20051;-72
2022/04/16 05:32:36;;;;;;;52.13;32.58;;;7.70;89.00;;;;;;4953255;28;20047;-72
2022/04/16 05:35:05;;;;;;;53.05;31.42;;;7.80;88.90;;;;;;4934941;29;21173;-72
2022/04/16 05:37:34;;;;;;;49.45;30.33;;;7.90;88.90;;;;;;4950229;28;20055;-72
2022/04/16 05:40:03;;;;;;;46.08;27.50;;;8.00;88.80;;;;;;4951406;29;20062;-72
2022/04/16 05:42:31;;;;;;;42.30;27.27;;;8.10;88.80;;;;;;4951696;29;20070;-72
2022/04/16 05:45:03;;;;;;;43.42;27.75;;;8.10;88.70;;;;;;4918534;29;20039;-72
2022/04/16 05:47:31;;;;;;;44.45;28.08;;;8.20;88.60;;;;;;4949549;28;20489;-72
2022/04/16 05:49:58;;;;;;;39.95;26.00;;;8.20;88.60;;;;;;4946001;29;20047;-72
2022/04/16 05:52:27;;;;;;;37.45;24.67;;;8.30;88.50;;;;;;4949241;28;20544;-72
2022/04/16 05:54:55;;;;;;;40.50;26.48;;;8.40;88.40;;;;;;4932996;29;20050;-72
2022/04/16 05:57:25;;;;;;;42.47;25.13;;;8.40;88.30;;;;;;4948945;29;20409;-72
2022/04/16 05:59:55;;;;;;;37.58;24.67;;;8.50;88.20;;;;;;4934548;29;20050;-72
2022/04/16 06:02:23;;;;;;;36.92;25.23;;;8.60;88.10;;;;;;4948893;29;20043;-72
2022/04/16 06:04:51;;;;;;;39.95;25.50;;;8.60;88.00;;;;;;4933940;29;20501;-72
2022/04/16 06:07:18;;;;;;;36.58;25.15;;;8.70;87.90;;;;;;4932505;29;20059;-71
2022/04/16 06:09:46;;;;;;;37.10;24.83;;;8.70;87.90;;;;;;4948213;28;20401;-72
2022/04/16 06:12:13;;;;;;;40.70;25.40;;;8.70;87.80;;;;;;4949943;29;20054;-72
2022/04/16 06:14:41;;;;;;;43.15;27.40;;;8.70;87.80;;;;;;4943718;29;20042;-72
2022/04/16 06:17:09;;;;;;;39.63;26.17;;;8.70;87.80;;;;;;4951096;29;20062;-72
2022/04/16 06:19:36;;;;;;;41.85;26.63;;;8.80;87.80;;;;;;4950209;29;20034;-72
2022/04/16 06:22:04;;;;;;;42.00;27.15;;;8.80;87.70;;;;;;4933450;29;20043;-72
2022/04/16 06:24:32;;;;;;;39.63;26.58;;;8.80;87.70;;;;;;4951445;29;20412;-72
2022/04/16 06:26:59;;;;;;;50.47;33.30;;;8.80;87.70;;;;;;4949327;29;20047;-72
2022/04/16 06:29:27;;;;;;;56.30;34.45;;;8.90;87.60;;;;;;4945190;28;20055;-70
2022/04/16 06:31:55;;;;;;;73.03;43.65;;;8.90;87.60;;;;;;4936837;29;20493;-72
2022/04/16 06:34:23;;;;;;;66.50;41.38;;;9.00;87.60;;;;;;4932959;29;20421;-73
2022/04/16 06:36:51;;;;;;;72.25;43.70;;;9.00;87.70;;;;;;4951448;29;20050;-72
2022/04/16 06:39:19;;;;;;;79.38;47.58;;;9.10;87.70;;;;;;4948591;28;20048;-71
2022/04/16 06:41:46;;;;;;;78.63;47.83;;;9.20;87.80;;;;;;4911553;29;20044;-72
2022/04/16 06:44:14;;;;;;;73.90;46.20;;;9.20;87.80;;;;;;4946173;29;20413;-73
2022/04/16 06:46:46;;;;;;;76.25;45.08;;;9.30;87.90;;;;;;4946670;28;20043;-73
2022/04/16 06:49:14;;;;;;;73.20;44.47;;;9.30;87.90;;;;;;4948333;28;20035;-71
2022/04/16 06:51:42;;;;;;;70.13;44.42;;;9.40;87.90;;;;;;4927742;28;20652;-73
2022/04/16 06:54:10;;;;;;;71.53;43.60;;;9.50;87.90;;;;;;4929670;29;20055;-73
2022/04/16 06:56:37;;;;;;;72.07;43.30;;;9.60;87.90;;;;;;4950487;28;20092;-72
2022/04/16 06:59:05;;;;;;;70.05;43.28;;;9.70;87.90;;;;;;4917748;29;20050;-73
2022/04/16 07:01:33;;;;;;;66.40;42.45;;;9.70;87.90;;;;;;4955869;28;20055;-71
2022/04/16 07:04:00;;;;;;;62.55;41.10;;;9.80;87.80;;;;;;4955102;28;20050;-72
2022/04/16 07:06:28;;;;;;;67.00;40.92;;;9.80;87.80;;;;;;4954380;28;20043;-70
2022/04/16 07:08:55;;;;;;;64.90;41.22;;;9.90;87.80;;;;;;4952473;29;20063;-72
2022/04/16 07:11:23;;;;;;;68.10;41.60;;;10.00;87.80;;;;;;4937279;29;20051;-72
2022/04/16 07:13:50;;;;;;;63.92;40.47;;;10.10;87.80;;;;;;4935621;29;20043;-71
2022/04/16 07:16:18;;;;;;;69.72;41.13;;;10.20;87.80;;;;;;4951294;28;20411;-72
2022/04/16 07:18:46;;;;;;;56.38;37.78;;;10.30;87.80;;;;;;4953265;28;20048;-72
2022/04/16 07:21:14;;;;;;;54.65;36.85;;;10.30;87.70;;;;;;4956249;29;20054;-72
2022/04/16 07:23:41;;;;;;;55.13;36.45;;;10.40;87.60;;;;;;4920891;29;20051;-72
2022/04/16 07:26:09;;;;;;;54.75;36.08;;;10.50;87.50;;;;;;4954822;28;20050;-72
2022/04/16 07:28:36;;;;;;;50.13;33.78;;;10.60;87.50;;;;;;4951215;29;20050;-72
2022/04/16 07:31:04;;;;;;;47.45;33.20;;;10.60;87.40;;;;;;4953773;29;20054;-72
2022/04/16 07:33:31;;;;;;;54.10;34.15;;;10.60;87.40;;;;;;4952093;28;20054;-72
2022/04/16 07:35:59;;;;;;;50.35;34.05;;;10.70;87.40;;;;;;4936255;29;20043;-71
2022/04/16 07:38:27;;;;;;;50.50;33.35;;;10.80;87.40;;;;;;4954629;28;20489;-71
2022/04/16 07:40:55;;;;;;;48.17;32.13;;;10.80;87.40;;;;;;4933727;29;20039;-72
2022/04/16 07:43:23;;;;;;;51.45;33.42;;;10.80;87.30;;;;;;4937170;29;20051;-73
2022/04/16 07:45:50;;;;;;;49.22;32.22;;;10.90;87.30;;;;;;4954621;29;20236;-72
2022/04/16 07:48:18;;;;;;;46.72;30.70;;;11.00;87.20;;;;;;4953663;28;20051;-72
2022/04/16 07:50:46;;;;;;;45.60;30.90;;;11.10;87.20;;;;;;4951015;28;20043;-72
2022/04/16 07:53:13;;;;;;;43.53;30.30;;;11.10;87.10;;;;;;4934321;29;20055;-72
2022/04/16 07:55:41;;;;;;;44.85;31.25;;;11.20;87.10;;;;;;4953463;29;20054;-71
2022/04/16 07:58:09;;;;;;;43.45;30.00;;;11.20;87.00;;;;;;4955515;28;20047;-73
2022/04/16 08:00:36;;;;;;;43.25;30.00;;;11.30;87.00;;;;;;4938541;29;20043;-72
2022/04/16 08:03:04;;;;;;;43.95;28.23;;;11.40;86.90;;;;;;4952976;28;20043;-71
2022/04/16 08:05:32;;;;;;;39.58;28.83;;;11.50;86.80;;;;;;4952858;28;20054;-72
2022/04/16 08:08:00;;;;;;;43.35;28.83;;;11.50;86.70;;;;;;4950105;29;20524;-72
2022/04/16 08:10:27;;;;;;;42.53;28.60;;;11.70;86.70;;;;;;4951329;28;20402;-73
2022/04/16 08:12:55;;;;;;;41.53;27.20;;;11.80;86.60;;;;;;4922069;29;20493;-72
2022/04/16 08:15:23;;;;;;;36.08;26.17;;;11.80;86.40;;;;;;4947278;28;20536;-71
2022/04/16 08:17:50;;;;;;;36.60;25.90;;;11.90;86.30;;;;;;4937740;29;20051;-72
2022/04/16 08:20:18;;;;;;;35.72;25.58;;;11.90;86.20;;;;;;4932959;29;20054;-72
2022/04/16 08:22:52;;;;;;;38.78;26.05;;;12.00;86.10;;;;;;4931201;29;20044;-73
2022/04/16 08:27:52;;;;;;;36.45;25.23;;;12.20;85.90;;;;;;4936255;29;20054;-72
2022/04/16 08:30:19;;;;;;;32.17;23.38;;;12.30;85.70;;;;;;4952739;28;20421;-72
2022/04/16 08:32:47;;;;;;;37.10;23.92;;;12.40;85.50;;;;;;4919552;29;20512;-72
2022/04/16 08:35:16;;;;;;;31.67;22.88;;;12.50;85.40;;;;;;4935602;29;20054;-71
2022/04/16 08:37:45;;;;;;;33.05;23.80;;;12.60;85.20;;;;;;4953523;28;21433;-71
2022/04/16 08:40:14;;;;;;;30.50;22.17;;;12.60;85.00;;;;;;4951839;28;20043;-71
2022/04/16 08:42:44;;;;;;;32.75;22.30;;;12.70;84.80;;;;;;4953567;29;20659;-71
2022/04/16 08:45:12;;;;;;;33.15;23.27;;;12.80;84.60;;;;;;4929021;29;20402;-73
2022/04/16 08:47:41;;;;;;;30.70;22.65;;;12.80;84.40;;;;;;4949423;28;20039;-73
2022/04/16 08:50:11;;;;;;;29.80;22.20;;;12.90;84.20;;;;;;4929719;29;20058;-72
2022/04/16 08:52:40;;;;;;;32.22;21.65;;;13.00;84.10;;;;;;4949164;29;20043;-71
2022/04/16 08:55:12;;;;;;;28.92;21.10;;;13.10;83.90;;;;;;4953728;29;20055;-71
2022/04/16 08:57:41;;;;;;;28.63;21.00;;;13.20;83.80;;;;;;4950538;28;20051;-72
2022/04/16 09:00:13;;;;;;;26.27;19.42;;;13.30;83.50;;;;;;4951476;28;20063;-72
2022/04/16 09:02:53;;;;;;;23.60;18.25;;;13.40;83.30;;;;;;4935446;29;20058;-72
2022/04/16 09:05:21;;;;;;;24.23;18.33;;;13.60;83.00;;;;;;4932909;29;20052;-74
2022/04/16 09:07:53;;;;;;;25.25;16.98;;;13.70;82.60;;;;;;4949512;29;20039;-73
2022/04/16 09:10:24;;;;;;;15.88;13.05;;;13.80;82.30;;;;;;4953994;29;20047;-73
2022/04/16 09:12:53;;;;;;;17.35;13.23;;;13.90;81.70;;;;;;4948000;28;20831;-73
2022/04/16 09:15:23;;;;;;;17.48;13.63;;;14.00;81.10;;;;;;4949413;28;20467;-70
2022/04/16 09:18:05;;;;;;;17.75;13.98;;;14.00;80.80;;;;;;4947271;28;20043;-73
2022/04/16 09:20:38;;;;;;;18.08;13.23;;;14.20;79.70;;;;;;4934435;29;20047;-73
2022/04/16 09:23:21;;;;;;;16.02;12.55;;;14.20;79.30;;;;;;4932591;29;20400;-73
2022/04/16 09:25:49;;;;;;;15.50;11.47;;;14.30;79.10;;;;;;4935187;29;20050;-71
2022/04/16 09:28:19;;;;;;;14.23;10.70;;;14.30;78.70;;;;;;4932628;29;20051;-71
2022/04/16 09:30:55;;;;;;;15.77;11.80;;;14.40;78.40;;;;;;4947677;29;20039;-73
2022/04/16 09:33:24;;;;;;;16.05;11.85;;;14.50;77.90;;;;;;4931096;29;20055;-72
2022/04/16 09:35:55;;;;;;;15.25;12.02;;;14.70;77.70;;;;;;4934896;29;20051;-72
2022/04/16 09:38:27;;;;;;;16.23;12.93;;;14.80;77.60;;;;;;4934551;29;20500;-71
2022/04/16 09:40:55;;;;;;;15.82;11.68;;;15.00;77.40;;;;;;4951817;29;20048;-71
2022/04/16 09:43:22;;;;;;;19.10;11.80;;;15.20;76.50;;;;;;4951898;29;20066;-72
2022/04/16 09:45:50;;;;;;;11.77;10.05;;;15.30;76.70;;;;;;4947247;28;20044;-72
2022/04/16 09:48:20;;;;;;;14.57;10.50;;;15.40;75.80;;;;;;4949165;29;20043;-73
2022/04/16 09:50:48;;;;;;;15.48;11.00;;;15.50;75.30;;;;;;4952600;28;20490;-72
2022/04/16 09:53:21;;;;;;;15.98;9.70;;;15.60;74.00;;;;;;4947074;28;20520;-72
2022/04/16 09:55:48;;;;;;;14.15;10.40;;;15.70;74.10;;;;;;4933806;29;20054;-72
2022/04/16 09:58:24;;;;;;;18.17;9.60;;;15.80;73.90;;;;;;4949692;29;20043;-72
2022/04/16 10:00:53;;;;;;;12.73;8.55;;;15.80;73.10;;;;;;4934318;29;20058;-72
2022/04/16 10:03:32;;;;;;;13.45;9.57;;;15.90;72.90;;;;;;4951478;28;20401;-73
2022/04/16 10:06:00;;;;;;;13.55;10.18;;;16.10;71.80;;;;;;4934932;29;20047;-73
2022/04/16 10:08:28;;;;;;;16.23;11.40;;;16.10;72.20;;;;;;4951667;29;20043;-72
2022/04/16 10:10:57;;;;;;;16.10;11.23;;;16.20;72.30;;;;;;4935104;29;20054;-73
2022/04/16 10:13:34;;;;;;;16.45;10.50;;;16.30;72.30;;;;;;4933088;29;20051;-73
2022/04/16 10:16:10;;;;;;;14.25;9.27;;;16.30;72.20;;;;;;4953470;28;20039;-73
2022/04/16 10:18:38;;;;;;;13.68;9.63;;;16.50;72.00;;;;;;4918326;29;20047;-72
2022/04/16 10:21:14;;;;;;;13.95;10.20;;;16.70;71.20;;;;;;4930463;29;20058;-73
2022/04/16 10:23:45;;;;;;;15.02;9.35;;;16.80;71.30;;;;;;4950442;28;20046;-72
2022/04/16 10:26:15;;;;;;;11.30;9.38;;;17.00;70.40;;;;;;4916133;29;20105;-72
2022/04/16 10:28:44;;;;;;;12.20;9.32;;;17.20;70.30;;;;;;4932656;29;20051;-72
2022/04/16 10:31:28;;;;;;;11.13;8.10;;;17.30;69.70;;;;;;4951224;29;20409;-72
2022/04/16 10:34:00;;;;;;;7.40;6.70;;;17.60;69.20;;;;;;4946754;28;20043;-72
2022/04/16 10:36:41;;;;;;;12.63;7.50;;;17.80;68.40;;;;;;4934059;29;20058;-72
2022/04/16 10:39:17;;;;;;;9.63;7.45;;;18.10;67.00;;;;;;4951566;28;20502;-71
2022/04/16 10:41:56;;;;;;;9.73;6.35;;;18.20;65.10;;;;;;4951200;28;20873;-72
2022/04/16 10:44:25;;;;;;;10.80;6.57;;;18.30;64.10;;;;;;4949331;29;20046;-72
2022/04/16 10:46:54;;;;;;;10.55;6.50;;;18.30;64.10;;;;;;4933635;29;20047;-72
2022/04/16 10:49:27;;;;;;;8.50;5.70;;;18.50;64.20;;;;;;4948016;29;20049;-72
2022/04/16 10:51:56;;;;;;;8.45;6.50;;;18.70;63.50;;;;;;4946525;28;20599;-71
2022/04/16 10:54:34;;;;;;;8.55;6.30;;;18.70;62.30;;;;;;4933023;29;20529;-72
2022/04/16 10:57:03;;;;;;;9.40;6.40;;;18.80;61.90;;;;;;4945560;28;20050;-72
2022/04/16 10:59:38;;;;;;;7.45;5.60;;;18.90;61.50;;;;;;4933840;29;20044;-72
2022/04/16 11:02:23;;;;;;;10.93;5.60;;;18.90;60.30;;;;;;4931741;29;20047;-71
2022/04/16 11:05:07;;;;;;;8.25;5.53;;;19.00;60.70;;;;;;4944303;29;20059;-72
2022/04/16 11:07:36;;;;;;;6.43;4.60;;;19.30;61.00;;;;;;4952487;28;20063;-71
2022/04/16 11:10:10;;;;;;;5.75;3.42;;;19.50;60.20;;;;;;4951946;29;20078;-71
2022/04/16 11:12:38;;;;;;;;;;;19.80;58.90;;;;;;4933392;29;20031;-71
2022/04/16 11:15:14;;;;;;;4.25;2.47;;;20.10;57.90;;;;;;4935687;29;19930;-71
2022/04/16 11:17:42;;;;;;;9.90;1.90;;;20.40;56.70;;;;;;4934030;29;20058;-73
2022/04/16 11:20:10;;;;;;;4.93;1.80;;;20.70;54.90;;;;;;4933788;29;20047;-72
2022/04/16 11:22:38;;;;;;;3.92;1.63;;;20.90;54.20;;;;;;4951413;29;20043;-73
2022/04/16 11:25:07;;;;;;;2.10;1.63;;;21.00;52.60;;;;;;4948950;29;20436;-72
2022/04/16 11:36:05;;;;;;;2.83;1.60;;;21.20;49.20;;;;;;4948498;29;20062;-72
2022/04/16 11:38:39;;;;;;;4.82;1.70;;;21.10;50.30;;;;;;4948673;29;20528;-72
2022/04/16 11:41:11;;;;;;;6.90;2.10;;;21.30;50.80;;;;;;4952516;29;20043;-72
2022/04/16 11:43:52;;;;;;;3.47;2.00;;;21.30;50.10;;;;;;4950022;29;20051;-72
2022/04/16 11:46:22;;;;;;;6.63;2.05;;;21.50;50.20;;;;;;4952450;28;20054;-72
2022/04/16 11:48:50;;;;;;;4.18;2.05;;;21.80;49.80;;;;;;4937014;29;20047;-72
2022/04/16 11:51:19;;;;;;;5.95;2.10;;;21.90;48.50;;;;;;4922636;29;20055;-72
2022/04/16 11:53:51;;;;;;;3.40;1.77;;;22.00;48.90;;;;;;4955509;29;20441;-72
2022/04/16 11:56:22;;;;;;;3.15;1.90;;;22.20;48.60;;;;;;4953523;29;20039;-72
2022/04/16 11:58:51;;;;;;;6.82;2.22;;;22.20;47.10;;;;;;4955901;29;20131;-74
2022/04/16 12:01:21;;;;;;;3.60;2.88;;;22.20;47.90;;;;;;4955830;29;20381;-72
2022/04/16 12:03:51;;;;;;;6.55;2.80;;;22.30;47.40;;;;;;4955400;29;20043;-72
2022/04/16 12:06:19;;;;;;;4.60;2.67;;;22.20;47.50;;;;;;4953916;29;20039;-72
2022/04/16 12:08:47;;;;;;;5.40;2.47;;;22.10;47.20;;;;;;4955466;29;20039;-73
2022/04/16 12:11:19;;;;;;;3.33;2.40;;;21.90;47.70;;;;;;4938173;29;20078;-72
2022/04/16 12:13:52;;;;;;;5.03;2.28;;;21.80;48.20;;;;;;4936869;29;20496;-72
2022/04/16 12:16:20;;;;;;;4.38;2.60;;;21.90;48.20;;;;;;4953557;29;20359;-73
2022/04/16 12:18:48;;;;;;;4.57;2.45;;;22.20;47.20;;;;;;4954355;28;20051;-72
2022/04/16 12:21:17;;;;;;;4.28;2.80;;;22.20;46.30;;;;;;4954735;28;20051;-72
2022/04/16 12:23:46;;;;;;;5.15;2.30;;;22.20;45.90;;;;;;4954227;29;20055;-71
2022/04/16 12:26:16;;;;;;;5.65;2.50;;;22.00;46.80;;;;;;4951019;29;20521;-73
2022/04/16 12:28:48;;;;;;;4.65;2.47;;;22.10;47.60;;;;;;4920136;29;20054;-71
2022/04/16 12:31:32;;;;;;;2.58;2.38;;;22.50;47.50;;;;;;4952638;29;20047;-72
2022/04/16 12:34:01;;;;;;;2.22;2.03;;;22.90;45.00;;;;;;4936150;29;20058;-71
2022/04/16 12:36:28;;;;;;;4.78;2.35;;;23.20;44.70;;;;;;4937846;29;20047;-73
2022/04/16 12:38:56;;;;;;;6.35;2.13;;;23.30;44.20;;;;;;4955314;29;20082;-73
2022/04/16 12:41:23;;;;;;;6.05;2.50;;;23.50;44.70;;;;;;4954037;28;20485;-72
2022/04/16 12:43:51;;;;;;;4.00;2.58;;;23.80;44.10;;;;;;4954370;28;20409;-73
2022/04/16 12:46:19;;;;;;;4.57;2.60;;;24.00;41.30;;;;;;4950305;29;20048;-72
2022/04/16 12:48:47;;;;;;;5.65;2.45;;;23.90;41.30;;;;;;4951716;29;20050;-72
2022/04/16 12:51:14;;;;;;;5.00;2.42;;;23.80;41.90;;;;;;4952230;28;20513;-72
2022/04/16 12:53:42;;;;;;;3.55;2.20;;;23.80;41.40;;;;;;4950442;29;20054;-72
2022/04/16 12:56:10;;;;;;;4.07;2.45;;;23.90;41.70;;;;;;4951535;29;20055;-72
2022/04/16 12:58:37;;;;;;;3.70;2.17;;;24.00;42.30;;;;;;4931049;29;20050;-72
2022/04/16 13:01:06;;;;;;;2.80;1.90;;;24.30;41.80;;;;;;4953058;28;20043;-72
2022/04/16 13:03:34;;;;;;;5.15;2.10;;;24.80;40.20;;;;;;4954318;29;20512;-72
2022/04/16 13:06:02;;;;;;;3.22;2.28;;;25.00;39.90;;;;;;4952709;29;20043;-73
2022/04/16 13:08:30;;;;;;;3.83;2.10;;;25.40;40.00;;;;;;4954423;29;20047;-72